This is the latest recevied weather packets stored in our database for station/object KC2TER. If no packets are shown the sender has not sent any weather packets the latest 10 day(s).
| Time | Temp. | Humidity | Pressure | Rain* | Wind** | Luminosity | Snow |
|---|---|---|---|---|---|---|---|
| 1777639173 | 10.56° C | 67% | 1013.9 hPa | 0 mm | - | 85 W/m² | - |
| 1777638869 | 10.56° C | 67% | 1014 hPa | 0 mm | - | 127 W/m² | - |
| 1777638565 | 10.56° C | 69% | 1013.8 hPa | 0 mm | - | 92 W/m² | - |
| 1777638261 | 10° C | 70% | 1014.1 hPa | 0 mm | - | 295 W/m² | - |
| 1777637958 | 10° C | 71% | 1013.9 hPa | 0 mm | - | 46 W/m² | - |
| 1777637654 | 10° C | 71% | 1013.9 hPa | 0 mm | - | 134 W/m² | - |
| 1777637352 | 9.44° C | 72% | 1013.9 hPa | 0 mm | - | 117 W/m² | - |
| 1777637048 | 9.44° C | 74% | 1013.8 hPa | 0 mm | - | 175 W/m² | - |
| 1777636744 | 8.89° C | 75% | 1013.8 hPa | 0 mm | - | 137 W/m² | - |
| 1777636440 | 8.89° C | 75% | 1014.1 hPa | 0 mm | - | 243 W/m² | - |
| 1777636136 | 8.89° C | 77% | 1013.8 hPa | 0 mm | - | 219 W/m² | - |
| 1777635831 | 8.33° C | 79% | 1013.9 hPa | 0 mm | - | 126 W/m² | - |
| 1777635528 | 8.33° C | 80% | 1013.7 hPa | 0 mm | - | 49 W/m² | - |
| 1777635224 | 7.78° C | 81% | 1013.9 hPa | 0 mm | - | 44 W/m² | - |
| 1777634921 | 7.78° C | 82% | 1013.8 hPa | 0 mm | - | 49 W/m² | - |
| 1777634618 | 7.78° C | 83% | 1013.8 hPa | 0 mm | - | 65 W/m² | - |
| 1777634316 | 7.22° C | 84% | 1013.6 hPa | 0 mm | - | 47 W/m² | - |
| 1777634012 | 7.22° C | 85% | 1013.6 hPa | 0 mm | - | 40 W/m² | - |
| 1777633709 | 7.22° C | 86% | 1013.7 hPa | 0 mm | - | 45 W/m² | - |
| 1777633407 | 6.67° C | 87% | 1013.5 hPa | 0 mm | - | 69 W/m² | - |
| 1777633104 | 6.67° C | 87% | 1013.6 hPa | 0 mm | - | 31 W/m² | - |
| 1777632800 | 6.67° C | 88% | 1013.7 hPa | 0 mm | - | 48 W/m² | - |
| 1777632496 | 6.67° C | 89% | 1013.5 hPa | 0 mm | - | 32 W/m² | - |
| 1777632194 | 6.67° C | 89% | 1013.5 hPa | 0 mm | - | 36 W/m² | - |
| 1777631891 | 6.11° C | 90% | 1013.6 hPa | 0 mm | - | 20 W/m² | - |
* Rain latest hour (hover to see other rain measurements)
** Current wind speed in m/s (hover to see current wind gust speed)